createdAt,value
2023-01-17T00:00:50.284Z,10.43
2023-01-17T00:03:17.906Z,10.90
2023-01-17T00:06:03.092Z,10.75
2023-01-17T00:08:49.979Z,11.10
2023-01-17T00:11:17.896Z,10.83
2023-01-17T00:13:45.652Z,11.15
2023-01-17T00:16:13.327Z,11.07
2023-01-17T00:19:01.003Z,10.96
2023-01-17T00:21:45.943Z,10.87
2023-01-17T00:24:33.038Z,10.97
2023-01-17T00:27:14.699Z,11.01
2023-01-17T00:29:41.294Z,11.04
2023-01-17T00:32:07.883Z,10.76
2023-01-17T00:34:34.356Z,11.23
2023-01-17T00:37:00.861Z,10.29
2023-01-17T00:39:28.934Z,10.60
2023-01-17T00:41:55.403Z,10.55
2023-01-17T00:44:40.465Z,10.78
2023-01-17T00:47:25.739Z,9.81
2023-01-17T00:50:10.746Z,10.00
2023-01-17T00:52:55.855Z,10.39
2023-01-17T00:55:42.468Z,10.52
2023-01-17T00:58:27.593Z,10.28
2023-01-17T01:01:13.094Z,10.34
2023-01-17T01:03:58.336Z,10.01
2023-01-17T01:06:43.620Z,9.56
2023-01-17T01:09:28.914Z,10.36
2023-01-17T01:12:15.469Z,9.79
2023-01-17T01:15:00.340Z,9.77
2023-01-17T01:17:45.691Z,10.44
2023-01-17T01:20:30.862Z,10.25
2023-01-17T01:23:16.287Z,10.44
2023-01-17T01:26:01.093Z,10.44
2023-01-17T01:28:47.588Z,10.34
2023-01-17T01:31:32.730Z,10.33
2023-01-17T01:34:00.362Z,10.64
2023-01-17T01:36:28.053Z,10.47
2023-01-17T01:38:56.809Z,10.65
2023-01-17T01:41:24.558Z,10.56
2023-01-17T01:43:53.916Z,10.38
2023-01-17T01:46:22.600Z,10.40
2023-01-17T01:48:52.397Z,10.45
2023-01-17T01:51:21.028Z,10.42
2023-01-17T01:53:49.136Z,10.76
2023-01-17T01:56:16.821Z,10.90
2023-01-17T01:58:45.288Z,10.91
2023-01-17T02:01:14.429Z,11.19
2023-01-17T02:03:42.149Z,11.24
2023-01-17T02:06:13.113Z,11.31
2023-01-17T02:08:40.826Z,11.46
2023-01-17T02:11:08.391Z,11.51
2023-01-17T02:13:36.511Z,11.46
2023-01-17T02:16:04.900Z,11.49
2023-01-17T02:18:37.843Z,11.36
2023-01-17T02:21:14.334Z,11.17
2023-01-17T02:23:56.716Z,11.21
2023-01-17T02:26:32.305Z,10.97
2023-01-17T02:29:10.715Z,11.01
2023-01-17T02:31:40.557Z,11.14
2023-01-17T02:34:10.483Z,11.42
2023-01-17T02:36:38.839Z,11.27
2023-01-17T02:39:08.220Z,11.54
2023-01-17T02:41:36.113Z,11.41
2023-01-17T02:44:03.961Z,11.55
2023-01-17T02:46:31.746Z,11.74
2023-01-17T02:49:01.542Z,12.07
2023-01-17T02:51:46.886Z,12.32
2023-01-17T02:54:22.285Z,12.14
2023-01-17T02:56:50.909Z,11.87
2023-01-17T02:59:22.204Z,11.25
2023-01-17T03:01:54.199Z,11.36
2023-01-17T03:04:24.841Z,11.70
2023-01-17T03:06:53.223Z,11.37
2023-01-17T03:09:20.996Z,11.97
2023-01-17T03:11:48.612Z,11.07
2023-01-17T03:14:16.326Z,10.73
2023-01-17T03:16:43.959Z,11.67
2023-01-17T03:19:14.659Z,11.71
2023-01-17T03:21:43.601Z,11.08
2023-01-17T03:24:11.191Z,10.77
2023-01-17T03:26:38.841Z,10.98
2023-01-17T03:29:06.887Z,11.07
2023-01-17T03:31:34.583Z,11.07
2023-01-17T03:34:02.218Z,12.06
2023-01-17T03:36:29.807Z,12.25
2023-01-17T03:38:59.050Z,11.36
2023-01-17T03:41:26.716Z,11.72
2023-01-17T03:43:54.474Z,11.22
2023-01-17T03:46:22.815Z,11.08
2023-01-17T03:48:50.496Z,10.61
2023-01-17T03:51:18.537Z,10.23
2023-01-17T03:53:46.864Z,11.23
2023-01-17T03:56:15.968Z,10.58
2023-01-17T03:58:43.688Z,10.48
2023-01-17T04:01:11.402Z,10.70
2023-01-17T04:03:39.136Z,10.30
2023-01-17T04:06:07.127Z,11.29
2023-01-17T04:08:34.813Z,10.08
2023-01-17T04:11:02.381Z,9.58
2023-01-17T04:13:31.434Z,9.63
2023-01-17T04:15:59.039Z,9.83
2023-01-17T04:18:26.662Z,10.21
2023-01-17T04:20:54.318Z,10.58
2023-01-17T04:23:21.928Z,9.70
2023-01-17T04:25:49.564Z,9.59
2023-01-17T04:28:17.132Z,10.26
2023-01-17T04:30:46.170Z,9.86
2023-01-17T04:33:13.752Z,9.00
2023-01-17T04:35:41.344Z,10.34
2023-01-17T04:38:08.955Z,9.32
2023-01-17T04:40:36.581Z,10.02
2023-01-17T04:43:04.207Z,10.30
2023-01-17T04:45:31.846Z,10.05
2023-01-17T04:48:04.928Z,9.77
2023-01-17T04:50:33.040Z,9.81
2023-01-17T04:53:00.892Z,8.59
2023-01-17T04:55:28.577Z,10.04
2023-01-17T04:57:57.669Z,9.46
2023-01-17T05:00:25.351Z,8.25
2023-01-17T05:02:53.087Z,8.99
2023-01-17T05:05:22.101Z,9.51
2023-01-17T05:07:55.715Z,9.74
2023-01-17T05:10:23.434Z,8.85
2023-01-17T05:12:57.020Z,9.35
2023-01-17T05:15:24.893Z,8.65
2023-01-17T05:17:52.570Z,8.95
2023-01-17T05:20:20.350Z,9.56
2023-01-17T05:22:55.857Z,9.51
2023-01-17T05:25:23.894Z,8.70
2023-01-17T05:27:51.490Z,9.30
2023-01-17T05:30:19.321Z,8.06
2023-01-17T05:32:49.204Z,8.72
2023-01-17T05:35:16.912Z,8.91
2023-01-17T05:37:48.847Z,8.32
2023-01-17T05:40:18.208Z,8.35
2023-01-17T05:42:46.380Z,8.25
2023-01-17T05:45:16.741Z,8.72
2023-01-17T05:47:44.637Z,7.42
2023-01-17T05:50:12.490Z,7.61
2023-01-17T05:52:40.045Z,8.08
2023-01-17T05:55:07.862Z,7.98
2023-01-17T05:57:36.827Z,7.66
2023-01-17T06:00:04.722Z,8.78
2023-01-17T06:02:32.448Z,6.88
2023-01-17T06:05:02.480Z,8.20
2023-01-17T06:07:30.936Z,8.50
2023-01-17T06:09:58.571Z,8.59
2023-01-17T06:12:26.126Z,8.77
2023-01-17T06:14:55.123Z,7.39
2023-01-17T06:17:22.782Z,8.42
2023-01-17T06:19:50.377Z,7.11
2023-01-17T06:22:17.976Z,7.42
2023-01-17T06:24:45.574Z,8.02
2023-01-17T06:27:13.121Z,7.50
2023-01-17T06:29:40.863Z,7.55
2023-01-17T06:32:09.809Z,8.10
2023-01-17T06:34:38.336Z,8.08
2023-01-17T06:37:05.950Z,8.94
2023-01-17T06:39:33.612Z,8.59
2023-01-17T06:42:01.263Z,7.94
2023-01-17T06:44:28.913Z,8.91
2023-01-17T06:46:56.589Z,10.20
2023-01-17T06:49:25.522Z,8.10
2023-01-17T06:51:53.230Z,9.94
2023-01-17T06:54:20.817Z,9.24
2023-01-17T06:56:48.484Z,8.26
2023-01-17T06:59:16.162Z,9.49
2023-01-17T07:01:43.840Z,8.24
2023-01-17T07:04:11.586Z,8.48
2023-01-17T07:06:40.679Z,7.95
2023-01-17T07:09:08.325Z,7.86
2023-01-17T07:11:35.923Z,8.03
2023-01-17T07:14:03.532Z,7.14
2023-01-17T07:16:31.227Z,9.03
2023-01-17T07:18:59.063Z,7.47
2023-01-17T07:21:26.692Z,7.52
2023-01-17T07:23:55.767Z,8.57
2023-01-17T07:26:23.569Z,8.04
2023-01-17T07:28:51.277Z,8.00
2023-01-17T07:31:18.898Z,7.99
2023-01-17T07:33:46.764Z,7.81
2023-01-17T07:36:14.714Z,7.79
2023-01-17T07:38:43.914Z,8.06
2023-01-17T07:41:14.542Z,7.55
2023-01-17T07:43:42.193Z,7.49
2023-01-17T07:46:09.787Z,8.46
2023-01-17T07:48:37.499Z,7.12
2023-01-17T07:51:05.183Z,8.37
2023-01-17T07:53:33.574Z,9.31
2023-01-17T07:56:01.536Z,8.88
2023-01-17T07:58:30.479Z,9.22
2023-01-17T08:01:02.132Z,7.67
2023-01-17T08:03:32.204Z,8.20
2023-01-17T08:05:59.992Z,9.24
2023-01-17T08:08:27.541Z,8.72
2023-01-17T08:10:55.205Z,9.36
2023-01-17T08:13:22.817Z,9.76
2023-01-17T08:15:51.890Z,6.94
2023-01-17T08:18:19.435Z,7.68
2023-01-17T08:20:47.101Z,7.05
2023-01-17T08:23:14.760Z,7.36
2023-01-17T08:25:42.402Z,7.88
2023-01-17T08:28:10.052Z,8.92
2023-01-17T08:30:37.644Z,6.84
2023-01-17T08:33:06.697Z,9.22
2023-01-17T08:35:36.096Z,8.05
2023-01-17T08:38:04.840Z,8.53
2023-01-17T08:40:33.126Z,8.89
2023-01-17T08:43:01.360Z,9.63
2023-01-17T08:45:29.182Z,9.87
2023-01-17T08:47:58.318Z,8.24
2023-01-17T08:50:27.373Z,7.27
2023-01-17T08:53:00.868Z,8.92
2023-01-17T08:55:28.835Z,7.53
2023-01-17T08:57:57.384Z,8.09
2023-01-17T09:00:25.356Z,8.24
2023-01-17T09:02:53.213Z,8.78
2023-01-17T09:05:20.952Z,7.87
2023-01-17T09:07:49.901Z,8.34
2023-01-17T09:10:17.790Z,8.40
2023-01-17T09:12:45.381Z,7.91
2023-01-17T09:15:14.638Z,8.36
2023-01-17T09:17:42.284Z,9.20
2023-01-17T09:24:01.221Z,8.91
2023-01-17T09:26:29.350Z,7.34
2023-01-17T09:28:57.564Z,8.39
2023-01-17T09:31:27.007Z,8.69
2023-01-17T09:33:55.197Z,9.85
2023-01-17T09:36:23.881Z,7.58
2023-01-17T09:38:56.206Z,9.14
2023-01-17T09:41:27.464Z,8.78
2023-01-17T09:43:56.851Z,8.78
2023-01-17T09:46:25.432Z,8.25
2023-01-17T09:48:54.516Z,8.83
2023-01-17T09:51:23.063Z,8.18
2023-01-17T09:53:50.663Z,9.37
2023-01-17T09:56:19.470Z,10.01
2023-01-17T09:58:50.404Z,8.59
2023-01-17T10:01:19.534Z,8.72
2023-01-17T10:04:03.869Z,7.92
2023-01-17T10:06:42.927Z,9.28
2023-01-17T10:09:15.237Z,10.13
2023-01-17T10:11:45.938Z,9.34
2023-01-17T10:14:18.826Z,8.50
2023-01-17T10:16:47.495Z,7.25
2023-01-17T10:19:27.600Z,7.20
2023-01-17T10:22:12.339Z,8.91
2023-01-17T10:25:03.986Z,7.97
2023-01-17T10:27:32.673Z,8.14
2023-01-17T10:30:01.703Z,8.46
2023-01-17T10:32:30.713Z,9.93
2023-01-17T10:34:58.956Z,9.61
2023-01-17T10:37:27.430Z,8.96
2023-01-17T10:39:55.528Z,9.38
2023-01-17T10:42:24.504Z,7.66
2023-01-17T10:44:53.791Z,10.28
2023-01-17T10:47:23.307Z,7.16
2023-01-17T10:49:51.979Z,8.98
2023-01-17T10:52:24.779Z,10.03
2023-01-17T10:54:56.492Z,7.92
2023-01-17T10:57:24.587Z,7.21
2023-01-17T10:59:52.385Z,8.49
2023-01-17T11:02:21.624Z,11.13
2023-01-17T11:04:52.013Z,9.22
2023-01-17T11:07:20.452Z,6.93
2023-01-17T11:09:49.548Z,6.02
2023-01-17T11:12:19.050Z,6.39
2023-01-17T11:14:50.387Z,7.49
2023-01-17T11:17:19.391Z,7.10
2023-01-17T11:19:51.153Z,7.84
2023-01-17T11:22:20.520Z,8.16
2023-01-17T11:24:53.719Z,6.45
2023-01-17T11:27:25.054Z,7.15
2023-01-17T11:30:03.126Z,6.74
2023-01-17T11:32:32.350Z,6.61
2023-01-17T11:35:11.156Z,7.33
2023-01-17T11:37:41.670Z,7.41
2023-01-17T11:40:10.934Z,8.21
2023-01-17T11:42:39.530Z,7.68
2023-01-17T11:45:24.191Z,7.51
2023-01-17T11:48:07.404Z,6.81
2023-01-17T11:50:36.625Z,8.09
2023-01-17T11:53:17.572Z,8.65
2023-01-17T11:55:56.634Z,8.61
2023-01-17T11:58:24.862Z,9.12
2023-01-17T12:00:59.648Z,8.88
2023-01-17T12:03:42.863Z,9.56
2023-01-17T12:06:11.762Z,8.72
2023-01-17T12:08:44.326Z,9.83
2023-01-17T12:11:13.148Z,10.21
2023-01-17T12:14:03.208Z,10.19
2023-01-17T12:16:41.926Z,9.57
2023-01-17T12:19:21.627Z,10.24
2023-01-17T12:21:55.900Z,11.34
2023-01-17T12:24:39.730Z,11.49
2023-01-17T12:27:13.548Z,9.64
2023-01-17T12:29:49.828Z,9.65
2023-01-17T12:32:35.675Z,9.81
2023-01-17T12:35:09.607Z,10.33
2023-01-17T12:37:39.207Z,11.60
2023-01-17T12:40:17.918Z,10.95
2023-01-17T12:42:49.535Z,10.98
2023-01-17T12:45:21.408Z,12.09
2023-01-17T12:47:54.754Z,12.22
2023-01-17T12:50:27.201Z,11.94
2023-01-17T12:53:00.742Z,11.50
2023-01-17T12:55:35.928Z,10.23
2023-01-17T12:58:07.439Z,10.66
2023-01-17T13:00:39.436Z,10.40
2023-01-17T13:03:14.398Z,10.09
2023-01-17T13:05:44.710Z,10.62
2023-01-17T13:08:21.281Z,10.60
2023-01-17T13:10:54.505Z,10.48
2023-01-17T13:13:25.608Z,11.03
2023-01-17T13:15:55.520Z,12.02
2023-01-17T13:18:25.673Z,11.39
2023-01-17T13:20:57.844Z,12.07
2023-01-17T13:23:29.231Z,13.21
2023-01-17T13:25:58.317Z,13.00
2023-01-17T13:28:29.534Z,11.75
2023-01-17T13:31:19.674Z,12.48
2023-01-17T13:34:02.229Z,13.51
2023-01-17T13:36:33.660Z,12.83
2023-01-17T13:39:08.959Z,13.05
2023-01-17T13:41:52.124Z,13.44
2023-01-17T13:44:23.166Z,12.61
2023-01-17T13:47:00.686Z,11.60
2023-01-17T13:49:37.327Z,11.48
2023-01-17T13:52:10.599Z,11.09
2023-01-17T13:54:45.816Z,10.62
2023-01-17T13:57:42.079Z,11.44
2023-01-17T14:00:58.710Z,11.84
2023-01-17T14:04:06.615Z,11.21
2023-01-17T14:06:40.545Z,12.22
2023-01-17T14:09:18.024Z,11.28
2023-01-17T14:12:00.952Z,10.68
2023-01-17T14:14:49.744Z,10.84
2023-01-17T14:17:48.623Z,10.48
2023-01-17T14:20:53.517Z,11.64
2023-01-17T14:23:45.253Z,11.22
2023-01-17T14:26:23.080Z,9.83
2023-01-17T14:28:50.998Z,13.43
2023-01-17T14:31:22.557Z,12.47
2023-01-17T14:33:50.566Z,13.76
2023-01-17T14:36:25.517Z,15.25
2023-01-17T14:38:53.391Z,15.81
2023-01-17T14:41:23.580Z,16.96
2023-01-17T14:43:52.600Z,13.44
2023-01-17T14:46:25.916Z,12.36
2023-01-17T14:48:59.997Z,12.95
2023-01-17T14:51:28.208Z,11.63
2023-01-17T14:53:57.865Z,11.41
2023-01-17T14:56:26.859Z,11.12
2023-01-17T14:59:17.085Z,10.86
2023-01-17T15:02:06.264Z,11.50
2023-01-17T15:04:39.235Z,11.39
2023-01-17T15:07:08.125Z,11.55
2023-01-17T15:09:38.139Z,11.81
2023-01-17T15:12:09.760Z,10.33
2023-01-17T15:14:40.614Z,10.53
2023-01-17T15:17:18.463Z,9.81
2023-01-17T15:19:49.364Z,10.68
2023-01-17T15:22:21.003Z,10.55
2023-01-17T15:24:49.169Z,10.09
2023-01-17T15:27:17.951Z,9.70
2023-01-17T15:29:46.765Z,9.99
2023-01-17T15:32:19.953Z,10.43
2023-01-17T15:34:49.445Z,9.66
2023-01-17T15:37:25.589Z,10.00
2023-01-17T15:39:53.482Z,9.88
2023-01-17T15:42:24.307Z,10.32
2023-01-17T15:44:53.725Z,10.80
2023-01-17T15:47:31.033Z,10.35
2023-01-17T15:49:59.658Z,9.66
2023-01-17T15:52:27.756Z,10.66
2023-01-17T15:54:59.840Z,10.63
2023-01-17T15:57:29.421Z,10.47
2023-01-17T15:59:59.919Z,10.52
2023-01-17T16:02:43.706Z,10.37
2023-01-17T16:05:41.785Z,10.55
2023-01-17T16:08:26.500Z,10.02
2023-01-17T16:10:56.688Z,10.68
2023-01-17T16:13:24.506Z,10.71
2023-01-17T16:15:52.392Z,10.70
2023-01-17T16:18:24.043Z,10.07
2023-01-17T16:20:54.871Z,10.30
2023-01-17T16:23:22.909Z,10.29
2023-01-17T16:25:50.678Z,10.25
2023-01-17T16:28:18.733Z,10.71
2023-01-17T16:30:48.967Z,10.24
2023-01-17T16:33:17.104Z,10.64
2023-01-17T16:35:46.564Z,10.45
2023-01-17T16:38:16.866Z,9.78
2023-01-17T16:40:46.084Z,10.45
2023-01-17T16:43:15.096Z,10.14
2023-01-17T16:45:43.949Z,10.23
2023-01-17T16:48:12.524Z,9.94
2023-01-17T16:50:42.187Z,9.84
2023-01-17T16:53:11.519Z,9.98
2023-01-17T16:55:42.097Z,9.97
2023-01-17T16:58:10.052Z,9.51
2023-01-17T17:00:38.046Z,9.37
2023-01-17T17:03:06.074Z,9.10
2023-01-17T17:05:34.417Z,8.84
2023-01-17T17:08:02.284Z,8.92
2023-01-17T17:10:31.938Z,9.23
2023-01-17T17:13:02.062Z,9.24
2023-01-17T17:15:30.763Z,9.44
2023-01-17T17:18:00.283Z,9.34
2023-01-17T17:20:28.320Z,9.11
2023-01-17T17:22:56.144Z,8.36
2023-01-17T17:25:23.989Z,8.73
2023-01-17T17:27:53.509Z,9.02
2023-01-17T17:30:21.648Z,9.40
2023-01-17T17:32:49.579Z,8.95
2023-01-17T17:35:18.121Z,8.88
2023-01-17T17:37:46.042Z,9.03
2023-01-17T17:40:14.246Z,8.98
2023-01-17T17:42:43.409Z,8.87
2023-01-17T17:45:13.109Z,9.11
2023-01-17T17:47:41.170Z,9.27
2023-01-17T17:50:10.429Z,9.00
2023-01-17T17:52:38.388Z,9.13
2023-01-17T17:55:07.149Z,8.98
2023-01-17T17:57:34.997Z,8.62
2023-01-17T18:00:03.716Z,8.69
2023-01-17T18:02:35.959Z,8.15
2023-01-17T18:05:03.967Z,8.81
2023-01-17T18:07:32.807Z,9.14
2023-01-17T18:10:00.715Z,9.27
2023-01-17T18:12:28.644Z,9.30
2023-01-17T18:14:56.506Z,9.12
2023-01-17T18:17:24.331Z,8.95
2023-01-17T18:19:53.521Z,9.10
2023-01-17T18:22:21.455Z,8.87
2023-01-17T18:24:49.218Z,9.03
2023-01-17T18:27:17.301Z,8.90
2023-01-17T18:29:45.149Z,9.05
2023-01-17T18:32:13.430Z,9.15
2023-01-17T18:34:42.316Z,9.09
2023-01-17T18:37:11.878Z,8.93
2023-01-17T18:39:39.815Z,8.89
2023-01-17T18:42:07.631Z,8.77
2023-01-17T18:44:35.525Z,8.60
2023-01-17T18:47:04.708Z,8.59
2023-01-17T18:49:33.659Z,8.56
2023-01-17T18:52:02.204Z,8.80
2023-01-17T18:54:31.960Z,8.76
2023-01-17T18:57:00.089Z,8.70
2023-01-17T18:59:28.255Z,8.41
2023-01-17T19:01:56.709Z,8.48
2023-01-17T19:04:24.577Z,8.66
2023-01-17T19:06:55.535Z,8.56
2023-01-17T19:09:23.454Z,8.26
2023-01-17T19:11:52.856Z,8.24
2023-01-17T19:14:20.735Z,7.99
2023-01-17T19:16:48.635Z,8.14
2023-01-17T19:19:16.732Z,8.22
2023-01-17T19:21:44.647Z,7.87
2023-01-17T19:24:14.253Z,7.79
2023-01-17T19:26:42.740Z,7.83
2023-01-17T19:29:12.435Z,7.69
2023-01-17T19:31:42.956Z,7.61
2023-01-17T19:34:13.641Z,7.79
2023-01-17T19:36:41.986Z,7.54
2023-01-17T19:39:10.434Z,7.55
2023-01-17T19:41:41.773Z,7.41
2023-01-17T19:44:12.817Z,7.47
2023-01-17T19:46:41.164Z,7.28
2023-01-17T19:49:09.781Z,7.20
2023-01-17T19:51:39.270Z,7.37
2023-01-17T19:54:08.381Z,7.42
2023-01-17T19:56:36.606Z,7.54
2023-01-17T19:59:04.601Z,7.47
2023-01-17T20:01:34.793Z,7.46
2023-01-17T20:04:03.712Z,7.53
2023-01-17T20:06:33.019Z,7.34
2023-01-17T20:09:01.194Z,7.36
2023-01-17T20:11:29.470Z,7.47
2023-01-17T20:13:59.877Z,7.33
2023-01-17T20:16:29.009Z,7.35
2023-01-17T20:18:58.605Z,7.39
2023-01-17T20:21:27.815Z,6.73
2023-01-17T20:23:57.018Z,6.69
2023-01-17T20:26:29.656Z,6.01
2023-01-17T20:28:57.705Z,6.64
2023-01-17T20:31:26.687Z,6.78
2023-01-17T20:33:56.384Z,4.21
2023-01-17T20:36:26.953Z,5.54
2023-01-17T20:38:56.975Z,6.34
2023-01-17T20:41:26.083Z,6.28
2023-01-17T20:43:56.739Z,6.36
2023-01-17T20:46:27.061Z,7.12
2023-01-17T20:48:57.648Z,7.67
2023-01-17T20:51:28.190Z,8.02
2023-01-17T20:53:57.651Z,7.76
2023-01-17T20:56:26.301Z,7.84
2023-01-17T20:58:54.650Z,6.38
2023-01-17T21:01:22.902Z,5.72
2023-01-17T21:03:53.738Z,6.30
2023-01-17T21:06:22.873Z,6.44
2023-01-17T21:08:52.536Z,6.59
2023-01-17T21:11:22.744Z,6.64
2023-01-17T21:13:51.321Z,5.97
2023-01-17T21:16:21.132Z,5.63
2023-01-17T21:18:50.217Z,6.35
2023-01-17T21:21:21.810Z,5.95
2023-01-17T21:23:50.675Z,6.13
2023-01-17T21:26:22.807Z,6.09
2023-01-17T21:28:50.981Z,6.36
2023-01-17T21:31:23.029Z,6.07
2023-01-17T21:33:52.780Z,6.87
2023-01-17T21:36:21.659Z,6.30
2023-01-17T21:38:51.956Z,6.73
2023-01-17T21:41:24.130Z,6.27
2023-01-17T21:43:55.273Z,6.34
2023-01-17T21:46:23.544Z,6.13
2023-01-17T21:48:51.442Z,6.65
2023-01-17T21:51:21.713Z,5.81
2023-01-17T21:53:49.725Z,6.07
2023-01-17T21:56:35.457Z,6.58
2023-01-17T21:59:04.697Z,6.82
2023-01-17T22:01:33.728Z,6.19
2023-01-17T22:04:03.714Z,6.80
2023-01-17T22:06:34.219Z,6.26
2023-01-17T22:09:02.239Z,6.97
2023-01-17T22:11:31.060Z,6.76
2023-01-17T22:13:59.985Z,6.62
2023-01-17T22:16:29.287Z,6.04
2023-01-17T22:18:57.172Z,6.45
2023-01-17T22:21:28.169Z,6.39
2023-01-17T22:23:57.473Z,5.96
2023-01-17T22:26:27.084Z,6.05
2023-01-17T22:28:55.874Z,6.51
2023-01-17T22:31:25.226Z,6.57
2023-01-17T22:33:55.877Z,6.46
2023-01-17T22:36:24.289Z,6.39
2023-01-17T22:38:52.332Z,6.30
2023-01-17T22:41:21.746Z,6.35
2023-01-17T22:43:51.104Z,5.63
2023-01-17T22:46:20.455Z,6.17
2023-01-17T22:48:48.468Z,6.26
2023-01-17T22:51:18.871Z,5.48
2023-01-17T22:53:48.121Z,5.55
2023-01-17T22:56:17.741Z,6.06
2023-01-17T22:58:48.545Z,5.74
2023-01-17T23:01:18.248Z,5.82
2023-01-17T23:03:47.085Z,5.63
2023-01-17T23:06:19.082Z,6.37
2023-01-17T23:08:50.173Z,6.58
2023-01-17T23:11:46.166Z,5.16
2023-01-17T23:14:17.107Z,5.34
2023-01-17T23:17:05.712Z,5.64
2023-01-17T23:19:36.576Z,6.29
2023-01-17T23:22:20.149Z,6.01
2023-01-17T23:24:50.672Z,6.66
2023-01-17T23:27:37.784Z,6.07
2023-01-17T23:30:08.197Z,5.67
2023-01-17T23:32:36.150Z,5.32
2023-01-17T23:35:04.211Z,5.64
2023-01-17T23:37:51.338Z,4.67
2023-01-17T23:40:20.047Z,4.77
2023-01-17T23:43:05.651Z,4.84
2023-01-17T23:45:35.998Z,4.07
2023-01-17T23:48:05.573Z,4.65
2023-01-17T23:50:33.959Z,4.99
2023-01-17T23:53:07.012Z,4.93
2023-01-17T23:55:36.157Z,5.20
2023-01-17T23:58:04.212Z,4.64
